sensor_id;sensor_type;location;lat;lon;timestamp;P1;durP1;ratioP1;P2;durP2;ratioP2
64339;SDS011;63709;53.258;-8.814;2023-05-07T00:02:12;15.13;;;3.17;;
64339;SDS011;63709;53.258;-8.814;2023-05-07T00:04:41;8.68;;;2.40;;
64339;SDS011;63709;53.258;-8.814;2023-05-07T00:07:08;10.70;;;3.28;;
64339;SDS011;63709;53.258;-8.814;2023-05-07T00:09:35;10.50;;;3.10;;
64339;SDS011;63709;53.258;-8.814;2023-05-07T00:14:30;11.90;;;3.10;;
64339;SDS011;63709;53.258;-8.814;2023-05-07T00:16:56;8.43;;;2.80;;
64339;SDS011;63709;53.258;-8.814;2023-05-07T00:22:37;15.70;;;3.38;;
64339;SDS011;63709;53.258;-8.814;2023-05-07T00:25:03;7.68;;;2.40;;
64339;SDS011;63709;53.258;-8.814;2023-05-07T00:27:31;9.02;;;3.17;;
64339;SDS011;63709;53.258;-8.814;2023-05-07T00:29:56;15.27;;;3.13;;
64339;SDS011;63709;53.258;-8.814;2023-05-07T00:32:29;9.63;;;2.75;;
64339;SDS011;63709;53.258;-8.814;2023-05-07T00:37:25;9.65;;;2.83;;
64339;SDS011;63709;53.258;-8.814;2023-05-07T00:39:50;7.93;;;2.38;;
64339;SDS011;63709;53.258;-8.814;2023-05-07T00:42:17;13.18;;;2.80;;
64339;SDS011;63709;53.258;-8.814;2023-05-07T00:44:43;12.35;;;3.22;;
64339;SDS011;63709;53.258;-8.814;2023-05-07T00:47:08;10.98;;;2.70;;
64339;SDS011;63709;53.258;-8.814;2023-05-07T00:49:44;9.60;;;2.35;;
64339;SDS011;63709;53.258;-8.814;2023-05-07T00:55:12;8.38;;;3.10;;
64339;SDS011;63709;53.258;-8.814;2023-05-07T00:57:54;8.88;;;3.15;;
64339;SDS011;63709;53.258;-8.814;2023-05-07T01:03:09;11.93;;;2.97;;
64339;SDS011;63709;53.258;-8.814;2023-05-07T01:05:40;12.98;;;2.80;;
64339;SDS011;63709;53.258;-8.814;2023-05-07T01:11:14;8.55;;;2.65;;
64339;SDS011;63709;53.258;-8.814;2023-05-07T01:16:13;11.52;;;3.67;;
64339;SDS011;63709;53.258;-8.814;2023-05-07T01:21:09;11.48;;;3.08;;
64339;SDS011;63709;53.258;-8.814;2023-05-07T01:23:41;7.65;;;2.85;;
64339;SDS011;63709;53.258;-8.814;2023-05-07T01:28:54;8.75;;;2.70;;
64339;SDS011;63709;53.258;-8.814;2023-05-07T01:31:19;9.73;;;2.45;;
64339;SDS011;63709;53.258;-8.814;2023-05-07T01:36:14;10.38;;;3.25;;
64339;SDS011;63709;53.258;-8.814;2023-05-07T01:41:08;8.80;;;2.63;;
64339;SDS011;63709;53.258;-8.814;2023-05-07T01:43:35;5.72;;;2.45;;
64339;SDS011;63709;53.258;-8.814;2023-05-07T01:46:01;7.05;;;2.72;;
64339;SDS011;63709;53.258;-8.814;2023-05-07T01:48:31;11.57;;;2.45;;
64339;SDS011;63709;53.258;-8.814;2023-05-07T01:50:57;7.38;;;2.33;;
64339;SDS011;63709;53.258;-8.814;2023-05-07T01:53:35;7.97;;;2.63;;
64339;SDS011;63709;53.258;-8.814;2023-05-07T01:56:10;9.32;;;2.60;;
64339;SDS011;63709;53.258;-8.814;2023-05-07T01:58:40;12.20;;;3.28;;
64339;SDS011;63709;53.258;-8.814;2023-05-07T02:01:07;7.50;;;2.90;;
64339;SDS011;63709;53.258;-8.814;2023-05-07T02:03:33;14.63;;;3.42;;
64339;SDS011;63709;53.258;-8.814;2023-05-07T02:05:59;9.02;;;2.60;;
64339;SDS011;63709;53.258;-8.814;2023-05-07T02:08:26;8.05;;;2.67;;
64339;SDS011;63709;53.258;-8.814;2023-05-07T02:10:53;9.10;;;2.80;;
64339;SDS011;63709;53.258;-8.814;2023-05-07T02:13:19;10.30;;;2.70;;
64339;SDS011;63709;53.258;-8.814;2023-05-07T02:15:45;10.65;;;2.90;;
64339;SDS011;63709;53.258;-8.814;2023-05-07T02:18:14;9.80;;;3.28;;
64339;SDS011;63709;53.258;-8.814;2023-05-07T02:20:41;7.45;;;2.25;;
64339;SDS011;63709;53.258;-8.814;2023-05-07T02:23:08;10.60;;;2.97;;
64339;SDS011;63709;53.258;-8.814;2023-05-07T02:25:35;7.32;;;2.45;;
64339;SDS011;63709;53.258;-8.814;2023-05-07T02:28:01;6.63;;;2.40;;
64339;SDS011;63709;53.258;-8.814;2023-05-07T02:30:42;15.23;;;2.97;;
64339;SDS011;63709;53.258;-8.814;2023-05-07T02:33:09;10.63;;;2.80;;
64339;SDS011;63709;53.258;-8.814;2023-05-07T02:35:40;10.15;;;2.80;;
64339;SDS011;63709;53.258;-8.814;2023-05-07T02:38:06;11.85;;;3.00;;
64339;SDS011;63709;53.258;-8.814;2023-05-07T02:40:34;13.60;;;2.80;;
64339;SDS011;63709;53.258;-8.814;2023-05-07T02:43:03;14.85;;;3.00;;
64339;SDS011;63709;53.258;-8.814;2023-05-07T02:48:06;8.85;;;2.75;;
64339;SDS011;63709;53.258;-8.814;2023-05-07T02:50:32;10.82;;;2.80;;
64339;SDS011;63709;53.258;-8.814;2023-05-07T02:52:57;7.93;;;2.60;;
64339;SDS011;63709;53.258;-8.814;2023-05-07T02:58:06;12.50;;;2.97;;
64339;SDS011;63709;53.258;-8.814;2023-05-07T03:00:38;11.15;;;2.78;;
64339;SDS011;63709;53.258;-8.814;2023-05-07T03:03:13;8.70;;;2.90;;
64339;SDS011;63709;53.258;-8.814;2023-05-07T03:05:41;9.85;;;2.70;;
64339;SDS011;63709;53.258;-8.814;2023-05-07T03:08:24;12.75;;;2.80;;
64339;SDS011;63709;53.258;-8.814;2023-05-07T03:11:02;12.32;;;2.85;;
64339;SDS011;63709;53.258;-8.814;2023-05-07T03:13:28;11.48;;;3.50;;
64339;SDS011;63709;53.258;-8.814;2023-05-07T03:15:54;10.65;;;2.97;;
64339;SDS011;63709;53.258;-8.814;2023-05-07T03:18:19;10.55;;;2.75;;
64339;SDS011;63709;53.258;-8.814;2023-05-07T03:20:47;8.80;;;2.90;;
64339;SDS011;63709;53.258;-8.814;2023-05-07T03:23:16;8.55;;;2.60;;
64339;SDS011;63709;53.258;-8.814;2023-05-07T03:25:43;8.57;;;2.70;;
64339;SDS011;63709;53.258;-8.814;2023-05-07T03:28:11;7.72;;;2.58;;
64339;SDS011;63709;53.258;-8.814;2023-05-07T03:30:37;12.95;;;3.00;;
64339;SDS011;63709;53.258;-8.814;2023-05-07T03:33:02;9.18;;;3.00;;
64339;SDS011;63709;53.258;-8.814;2023-05-07T03:35:29;7.60;;;2.60;;
64339;SDS011;63709;53.258;-8.814;2023-05-07T03:37:56;6.68;;;2.80;;
64339;SDS011;63709;53.258;-8.814;2023-05-07T03:40:21;11.52;;;2.85;;
64339;SDS011;63709;53.258;-8.814;2023-05-07T03:43:00;12.65;;;2.63;;
64339;SDS011;63709;53.258;-8.814;2023-05-07T03:45:27;11.23;;;2.67;;
64339;SDS011;63709;53.258;-8.814;2023-05-07T03:47:52;8.68;;;2.97;;
64339;SDS011;63709;53.258;-8.814;2023-05-07T03:50:17;11.15;;;3.03;;
64339;SDS011;63709;53.258;-8.814;2023-05-07T03:52:45;12.70;;;3.00;;
64339;SDS011;63709;53.258;-8.814;2023-05-07T03:55:11;7.57;;;2.63;;
64339;SDS011;63709;53.258;-8.814;2023-05-07T03:57:41;18.55;;;3.40;;
64339;SDS011;63709;53.258;-8.814;2023-05-07T04:00:08;11.57;;;3.20;;
64339;SDS011;63709;53.258;-8.814;2023-05-07T04:02:35;7.53;;;2.58;;
64339;SDS011;63709;53.258;-8.814;2023-05-07T04:05:02;8.23;;;2.90;;
64339;SDS011;63709;53.258;-8.814;2023-05-07T04:07:27;12.43;;;3.03;;
64339;SDS011;63709;53.258;-8.814;2023-05-07T04:10:03;7.88;;;2.60;;
64339;SDS011;63709;53.258;-8.814;2023-05-07T04:12:31;10.70;;;3.00;;
64339;SDS011;63709;53.258;-8.814;2023-05-07T04:14:58;10.25;;;3.00;;
64339;SDS011;63709;53.258;-8.814;2023-05-07T04:17:26;9.95;;;3.08;;
64339;SDS011;63709;53.258;-8.814;2023-05-07T04:19:57;7.78;;;3.13;;
64339;SDS011;63709;53.258;-8.814;2023-05-07T04:22:25;8.55;;;3.38;;
64339;SDS011;63709;53.258;-8.814;2023-05-07T04:24:54;8.65;;;3.15;;
64339;SDS011;63709;53.258;-8.814;2023-05-07T04:27:23;8.70;;;2.65;;
64339;SDS011;63709;53.258;-8.814;2023-05-07T04:29:49;8.85;;;3.17;;
64339;SDS011;63709;53.258;-8.814;2023-05-07T04:32:14;9.05;;;3.08;;
64339;SDS011;63709;53.258;-8.814;2023-05-07T04:34:51;12.05;;;3.88;;
64339;SDS011;63709;53.258;-8.814;2023-05-07T04:39:46;7.45;;;2.90;;
64339;SDS011;63709;53.258;-8.814;2023-05-07T04:42:16;15.95;;;3.60;;
64339;SDS011;63709;53.258;-8.814;2023-05-07T04:44:45;13.27;;;3.15;;
64339;SDS011;63709;53.258;-8.814;2023-05-07T04:47:11;12.50;;;3.08;;
64339;SDS011;63709;53.258;-8.814;2023-05-07T04:49:38;12.20;;;3.10;;
64339;SDS011;63709;53.258;-8.814;2023-05-07T04:52:04;14.02;;;3.22;;
64339;SDS011;63709;53.258;-8.814;2023-05-07T04:54:30;8.80;;;3.42;;
64339;SDS011;63709;53.258;-8.814;2023-05-07T04:56:57;16.45;;;3.75;;
64339;SDS011;63709;53.258;-8.814;2023-05-07T04:59:23;7.82;;;3.13;;
64339;SDS011;63709;53.258;-8.814;2023-05-07T05:01:54;11.43;;;3.08;;
64339;SDS011;63709;53.258;-8.814;2023-05-07T05:04:23;9.40;;;2.85;;
64339;SDS011;63709;53.258;-8.814;2023-05-07T05:06:49;9.80;;;3.20;;
64339;SDS011;63709;53.258;-8.814;2023-05-07T05:09:17;9.23;;;3.38;;
64339;SDS011;63709;53.258;-8.814;2023-05-07T05:14:41;8.30;;;3.30;;
64339;SDS011;63709;53.258;-8.814;2023-05-07T05:17:06;12.32;;;3.13;;
64339;SDS011;63709;53.258;-8.814;2023-05-07T05:22:24;8.88;;;3.15;;
64339;SDS011;63709;53.258;-8.814;2023-05-07T05:27:16;10.32;;;3.08;;
64339;SDS011;63709;53.258;-8.814;2023-05-07T05:29:42;12.30;;;3.70;;
64339;SDS011;63709;53.258;-8.814;2023-05-07T05:32:08;12.88;;;3.78;;
64339;SDS011;63709;53.258;-8.814;2023-05-07T05:34:39;10.43;;;3.05;;
64339;SDS011;63709;53.258;-8.814;2023-05-07T05:37:05;7.13;;;3.10;;
64339;SDS011;63709;53.258;-8.814;2023-05-07T05:39:31;7.53;;;3.13;;
64339;SDS011;63709;53.258;-8.814;2023-05-07T05:42:02;7.60;;;3.25;;
64339;SDS011;63709;53.258;-8.814;2023-05-07T05:44:28;9.38;;;3.42;;
64339;SDS011;63709;53.258;-8.814;2023-05-07T05:46:54;9.30;;;3.17;;
64339;SDS011;63709;53.258;-8.814;2023-05-07T05:49:26;10.95;;;3.00;;
64339;SDS011;63709;53.258;-8.814;2023-05-07T05:51:52;12.20;;;3.50;;
64339;SDS011;63709;53.258;-8.814;2023-05-07T05:54:33;11.85;;;3.78;;
64339;SDS011;63709;53.258;-8.814;2023-05-07T05:57:01;8.93;;;3.20;;
64339;SDS011;63709;53.258;-8.814;2023-05-07T05:59:29;12.73;;;3.10;;
64339;SDS011;63709;53.258;-8.814;2023-05-07T06:01:55;13.40;;;3.35;;
64339;SDS011;63709;53.258;-8.814;2023-05-07T06:04:26;9.18;;;3.50;;
64339;SDS011;63709;53.258;-8.814;2023-05-07T06:09:20;13.75;;;4.25;;
64339;SDS011;63709;53.258;-8.814;2023-05-07T06:11:45;23.27;;;4.53;;
64339;SDS011;63709;53.258;-8.814;2023-05-07T06:14:17;9.13;;;3.13;;
64339;SDS011;63709;53.258;-8.814;2023-05-07T06:16:48;9.38;;;3.42;;
64339;SDS011;63709;53.258;-8.814;2023-05-07T06:19:32;9.02;;;3.30;;
64339;SDS011;63709;53.258;-8.814;2023-05-07T06:22:03;14.50;;;3.58;;
64339;SDS011;63709;53.258;-8.814;2023-05-07T06:24:28;9.15;;;3.22;;
64339;SDS011;63709;53.258;-8.814;2023-05-07T06:27:00;14.02;;;3.35;;
64339;SDS011;63709;53.258;-8.814;2023-05-07T06:29:29;11.65;;;3.20;;
64339;SDS011;63709;53.258;-8.814;2023-05-07T06:32:10;8.25;;;3.35;;
64339;SDS011;63709;53.258;-8.814;2023-05-07T06:34:36;9.77;;;2.88;;
64339;SDS011;63709;53.258;-8.814;2023-05-07T06:37:02;13.73;;;3.20;;
64339;SDS011;63709;53.258;-8.814;2023-05-07T06:39:28;9.85;;;3.22;;
64339;SDS011;63709;53.258;-8.814;2023-05-07T06:41:54;12.77;;;3.07;;
64339;SDS011;63709;53.258;-8.814;2023-05-07T06:44:20;7.90;;;3.55;;
64339;SDS011;63709;53.258;-8.814;2023-05-07T06:46:51;8.00;;;3.13;;
64339;SDS011;63709;53.258;-8.814;2023-05-07T06:49:17;13.40;;;3.30;;
64339;SDS011;63709;53.258;-8.814;2023-05-07T06:51:44;10.50;;;3.00;;
64339;SDS011;63709;53.258;-8.814;2023-05-07T06:54:09;8.45;;;3.58;;
64339;SDS011;63709;53.258;-8.814;2023-05-07T06:59:04;8.15;;;2.63;;
64339;SDS011;63709;53.258;-8.814;2023-05-07T07:01:30;9.73;;;2.95;;
64339;SDS011;63709;53.258;-8.814;2023-05-07T07:04:03;14.35;;;3.03;;
64339;SDS011;63709;53.258;-8.814;2023-05-07T07:06:29;11.90;;;3.17;;
64339;SDS011;63709;53.258;-8.814;2023-05-07T07:08:59;10.40;;;3.58;;
64339;SDS011;63709;53.258;-8.814;2023-05-07T07:11:31;6.68;;;2.90;;
64339;SDS011;63709;53.258;-8.814;2023-05-07T07:13:57;12.57;;;2.92;;
64339;SDS011;63709;53.258;-8.814;2023-05-07T07:16:30;11.57;;;2.83;;
64339;SDS011;63709;53.258;-8.814;2023-05-07T07:19:01;6.88;;;2.80;;
64339;SDS011;63709;53.258;-8.814;2023-05-07T07:21:31;7.75;;;2.63;;
64339;SDS011;63709;53.258;-8.814;2023-05-07T07:26:29;7.88;;;3.17;;
64339;SDS011;63709;53.258;-8.814;2023-05-07T07:29:04;8.57;;;2.85;;
64339;SDS011;63709;53.258;-8.814;2023-05-07T07:37:19;9.00;;;2.67;;
64339;SDS011;63709;53.258;-8.814;2023-05-07T07:39:44;5.38;;;2.28;;
64339;SDS011;63709;53.258;-8.814;2023-05-07T07:42:10;8.27;;;2.88;;
64339;SDS011;63709;53.258;-8.814;2023-05-07T07:44:35;9.65;;;2.72;;
64339;SDS011;63709;53.258;-8.814;2023-05-07T07:47:00;5.50;;;2.70;;
64339;SDS011;63709;53.258;-8.814;2023-05-07T07:51:56;8.15;;;2.90;;
64339;SDS011;63709;53.258;-8.814;2023-05-07T07:54:34;9.13;;;3.30;;
64339;SDS011;63709;53.258;-8.814;2023-05-07T07:57:06;9.13;;;2.88;;
64339;SDS011;63709;53.258;-8.814;2023-05-07T07:59:36;9.15;;;2.50;;
64339;SDS011;63709;53.258;-8.814;2023-05-07T08:02:02;6.40;;;2.38;;
64339;SDS011;63709;53.258;-8.814;2023-05-07T08:04:27;12.95;;;3.10;;
64339;SDS011;63709;53.258;-8.814;2023-05-07T08:06:57;9.00;;;2.70;;
64339;SDS011;63709;53.258;-8.814;2023-05-07T08:18:18;9.43;;;2.80;;
64339;SDS011;63709;53.258;-8.814;2023-05-07T08:23:18;14.20;;;2.70;;
64339;SDS011;63709;53.258;-8.814;2023-05-07T08:25:49;9.85;;;3.08;;
64339;SDS011;63709;53.258;-8.814;2023-05-07T08:33:40;9.07;;;2.90;;
64339;SDS011;63709;53.258;-8.814;2023-05-07T08:36:16;5.68;;;2.70;;
64339;SDS011;63709;53.258;-8.814;2023-05-07T08:38:53;8.88;;;2.95;;
64339;SDS011;63709;53.258;-8.814;2023-05-07T08:41:31;7.20;;;2.70;;
64339;SDS011;63709;53.258;-8.814;2023-05-07T08:49:20;9.13;;;2.75;;
64339;SDS011;63709;53.258;-8.814;2023-05-07T08:54:45;8.13;;;3.22;;
64339;SDS011;63709;53.258;-8.814;2023-05-07T08:57:12;5.10;;;2.90;;
64339;SDS011;63709;53.258;-8.814;2023-05-07T08:59:46;8.73;;;2.90;;
64339;SDS011;63709;53.258;-8.814;2023-05-07T09:02:20;7.93;;;2.97;;
64339;SDS011;63709;53.258;-8.814;2023-05-07T09:04:52;8.27;;;2.83;;
64339;SDS011;63709;53.258;-8.814;2023-05-07T09:07:18;8.45;;;3.17;;
64339;SDS011;63709;53.258;-8.814;2023-05-07T09:09:48;10.40;;;3.13;;
64339;SDS011;63709;53.258;-8.814;2023-05-07T09:12:24;12.80;;;3.30;;
64339;SDS011;63709;53.258;-8.814;2023-05-07T09:14:49;7.90;;;2.80;;
64339;SDS011;63709;53.258;-8.814;2023-05-07T09:17:20;7.95;;;2.90;;
64339;SDS011;63709;53.258;-8.814;2023-05-07T09:19:45;7.88;;;3.10;;
64339;SDS011;63709;53.258;-8.814;2023-05-07T09:22:13;5.68;;;2.75;;
64339;SDS011;63709;53.258;-8.814;2023-05-07T09:24:48;6.60;;;2.67;;
64339;SDS011;63709;53.258;-8.814;2023-05-07T09:27:30;8.02;;;2.60;;
64339;SDS011;63709;53.258;-8.814;2023-05-07T09:29:59;5.47;;;2.40;;
64339;SDS011;63709;53.258;-8.814;2023-05-07T09:32:35;5.85;;;2.50;;
64339;SDS011;63709;53.258;-8.814;2023-05-07T09:35:05;6.13;;;3.08;;
64339;SDS011;63709;53.258;-8.814;2023-05-07T09:40:00;9.13;;;2.80;;
64339;SDS011;63709;53.258;-8.814;2023-05-07T09:44:55;6.18;;;2.58;;
64339;SDS011;63709;53.258;-8.814;2023-05-07T09:47:33;4.95;;;2.20;;
64339;SDS011;63709;53.258;-8.814;2023-05-07T09:50:03;7.95;;;2.00;;
64339;SDS011;63709;53.258;-8.814;2023-05-07T09:52:38;5.90;;;2.10;;
64339;SDS011;63709;53.258;-8.814;2023-05-07T09:55:11;6.57;;;2.58;;
64339;SDS011;63709;53.258;-8.814;2023-05-07T09:57:37;5.95;;;2.28;;
64339;SDS011;63709;53.258;-8.814;2023-05-07T10:00:05;7.80;;;2.40;;
64339;SDS011;63709;53.258;-8.814;2023-05-07T10:02:32;5.82;;;2.38;;
64339;SDS011;63709;53.258;-8.814;2023-05-07T10:05:06;6.05;;;2.00;;
64339;SDS011;63709;53.258;-8.814;2023-05-07T10:07:32;9.27;;;2.20;;
64339;SDS011;63709;53.258;-8.814;2023-05-07T10:10:00;4.63;;;2.33;;
64339;SDS011;63709;53.258;-8.814;2023-05-07T10:12:41;7.55;;;2.30;;
64339;SDS011;63709;53.258;-8.814;2023-05-07T10:15:19;5.70;;;2.30;;
64339;SDS011;63709;53.258;-8.814;2023-05-07T10:20:35;4.65;;;2.15;;
64339;SDS011;63709;53.258;-8.814;2023-05-07T10:23:02;5.78;;;2.17;;
64339;SDS011;63709;53.258;-8.814;2023-05-07T10:28:08;8.95;;;2.50;;
64339;SDS011;63709;53.258;-8.814;2023-05-07T10:34:02;9.85;;;2.80;;
64339;SDS011;63709;53.258;-8.814;2023-05-07T10:36:35;7.78;;;2.60;;
64339;SDS011;63709;53.258;-8.814;2023-05-07T10:39:09;6.55;;;2.22;;
64339;SDS011;63709;53.258;-8.814;2023-05-07T10:41:44;4.10;;;1.90;;
64339;SDS011;63709;53.258;-8.814;2023-05-07T10:52:24;4.82;;;2.30;;
64339;SDS011;63709;53.258;-8.814;2023-05-07T10:57:56;4.80;;;1.90;;
64339;SDS011;63709;53.258;-8.814;2023-05-07T11:00:50;5.32;;;2.03;;
64339;SDS011;63709;53.258;-8.814;2023-05-07T11:03:28;11.90;;;2.63;;
64339;SDS011;63709;53.258;-8.814;2023-05-07T11:09:07;7.70;;;2.20;;
64339;SDS011;63709;53.258;-8.814;2023-05-07T11:11:49;8.95;;;2.30;;
64339;SDS011;63709;53.258;-8.814;2023-05-07T11:17:12;6.97;;;2.30;;
64339;SDS011;63709;53.258;-8.814;2023-05-07T11:25:29;7.22;;;1.98;;
64339;SDS011;63709;53.258;-8.814;2023-05-07T11:28:10;8.50;;;2.33;;
64339;SDS011;63709;53.258;-8.814;2023-05-07T11:33:26;5.28;;;1.73;;
64339;SDS011;63709;53.258;-8.814;2023-05-07T11:36:11;8.85;;;2.10;;
64339;SDS011;63709;53.258;-8.814;2023-05-07T11:38:49;12.85;;;2.58;;
64339;SDS011;63709;53.258;-8.814;2023-05-07T11:41:15;8.40;;;2.03;;
64339;SDS011;63709;53.258;-8.814;2023-05-07T11:46:29;7.57;;;1.83;;
64339;SDS011;63709;53.258;-8.814;2023-05-07T11:49:00;7.70;;;2.00;;
64339;SDS011;63709;53.258;-8.814;2023-05-07T11:51:36;9.02;;;2.25;;
64339;SDS011;63709;53.258;-8.814;2023-05-07T11:54:18;7.87;;;1.83;;
64339;SDS011;63709;53.258;-8.814;2023-05-07T11:56:46;7.10;;;2.40;;
64339;SDS011;63709;53.258;-8.814;2023-05-07T12:01:50;8.90;;;1.63;;
64339;SDS011;63709;53.258;-8.814;2023-05-07T12:07:16;9.13;;;2.17;;
64339;SDS011;63709;53.258;-8.814;2023-05-07T12:09:49;9.65;;;1.98;;
64339;SDS011;63709;53.258;-8.814;2023-05-07T12:12:25;8.95;;;2.10;;
64339;SDS011;63709;53.258;-8.814;2023-05-07T12:17:35;6.88;;;1.98;;
64339;SDS011;63709;53.258;-8.814;2023-05-07T12:22:34;6.55;;;1.77;;
64339;SDS011;63709;53.258;-8.814;2023-05-07T12:25:12;4.57;;;2.03;;
64339;SDS011;63709;53.258;-8.814;2023-05-07T12:27:45;4.90;;;1.73;;
64339;SDS011;63709;53.258;-8.814;2023-05-07T12:30:16;6.57;;;1.85;;
64339;SDS011;63709;53.258;-8.814;2023-05-07T12:32:45;7.57;;;1.80;;
64339;SDS011;63709;53.258;-8.814;2023-05-07T12:35:16;9.02;;;2.10;;
64339;SDS011;63709;53.258;-8.814;2023-05-07T12:37:54;6.22;;;1.88;;
64339;SDS011;63709;53.258;-8.814;2023-05-07T12:40:21;8.00;;;1.85;;
64339;SDS011;63709;53.258;-8.814;2023-05-07T12:42:52;5.88;;;1.65;;
64339;SDS011;63709;53.258;-8.814;2023-05-07T12:45:19;12.45;;;2.38;;
64339;SDS011;63709;53.258;-8.814;2023-05-07T12:50:41;6.70;;;1.92;;
64339;SDS011;63709;53.258;-8.814;2023-05-07T12:53:11;6.15;;;2.10;;
64339;SDS011;63709;53.258;-8.814;2023-05-07T12:55:58;8.82;;;2.00;;
64339;SDS011;63709;53.258;-8.814;2023-05-07T12:58:40;8.20;;;2.00;;
64339;SDS011;63709;53.258;-8.814;2023-05-07T13:01:09;11.25;;;1.90;;
64339;SDS011;63709;53.258;-8.814;2023-05-07T13:03:43;6.28;;;1.80;;
64339;SDS011;63709;53.258;-8.814;2023-05-07T13:06:19;7.32;;;1.90;;
64339;SDS011;63709;53.258;-8.814;2023-05-07T13:08:48;6.75;;;1.60;;
64339;SDS011;63709;53.258;-8.814;2023-05-07T13:11:14;6.32;;;1.73;;
64339;SDS011;63709;53.258;-8.814;2023-05-07T13:16:16;8.55;;;1.83;;
64339;SDS011;63709;53.258;-8.814;2023-05-07T13:18:49;5.82;;;1.63;;
64339;SDS011;63709;53.258;-8.814;2023-05-07T13:24:16;7.80;;;1.88;;
64339;SDS011;63709;53.258;-8.814;2023-05-07T13:29:38;5.13;;;1.58;;
64339;SDS011;63709;53.258;-8.814;2023-05-07T13:41:02;5.18;;;1.80;;
64339;SDS011;63709;53.258;-8.814;2023-05-07T13:46:56;5.50;;;1.42;;
64339;SDS011;63709;53.258;-8.814;2023-05-07T13:55:03;5.32;;;1.30;;
64339;SDS011;63709;53.258;-8.814;2023-05-07T13:57:40;3.20;;;1.20;;
64339;SDS011;63709;53.258;-8.814;2023-05-07T14:03:08;6.35;;;1.60;;
64339;SDS011;63709;53.258;-8.814;2023-05-07T14:08:35;6.53;;;1.43;;
64339;SDS011;63709;53.258;-8.814;2023-05-07T14:11:24;6.97;;;1.80;;
64339;SDS011;63709;53.258;-8.814;2023-05-07T14:20:05;8.70;;;1.75;;
64339;SDS011;63709;53.258;-8.814;2023-05-07T14:22:47;5.65;;;1.63;;
64339;SDS011;63709;53.258;-8.814;2023-05-07T14:31:16;6.78;;;1.70;;
64339;SDS011;63709;53.258;-8.814;2023-05-07T14:45:25;5.82;;;1.40;;
64339;SDS011;63709;53.258;-8.814;2023-05-07T14:53:52;4.68;;;1.50;;
64339;SDS011;63709;53.258;-8.814;2023-05-07T15:04:46;10.07;;;1.85;;
64339;SDS011;63709;53.258;-8.814;2023-05-07T15:07:20;7.00;;;1.65;;
64339;SDS011;63709;53.258;-8.814;2023-05-07T15:10:02;5.43;;;1.50;;
64339;SDS011;63709;53.258;-8.814;2023-05-07T15:12:40;4.88;;;1.48;;
64339;SDS011;63709;53.258;-8.814;2023-05-07T15:21:28;6.13;;;1.90;;
64339;SDS011;63709;53.258;-8.814;2023-05-07T15:26:55;5.63;;;1.52;;
64339;SDS011;63709;53.258;-8.814;2023-05-07T15:32:40;4.35;;;1.50;;
64339;SDS011;63709;53.258;-8.814;2023-05-07T15:35:14;12.07;;;2.33;;
64339;SDS011;63709;53.258;-8.814;2023-05-07T15:46:08;5.80;;;1.48;;
64339;SDS011;63709;53.258;-8.814;2023-05-07T15:51:55;3.72;;;1.60;;
64339;SDS011;63709;53.258;-8.814;2023-05-07T15:54:23;4.07;;;1.88;;
64339;SDS011;63709;53.258;-8.814;2023-05-07T16:06:41;7.65;;;1.80;;
64339;SDS011;63709;53.258;-8.814;2023-05-07T16:09:15;8.25;;;1.73;;
64339;SDS011;63709;53.258;-8.814;2023-05-07T16:11:56;7.05;;;1.65;;
64339;SDS011;63709;53.258;-8.814;2023-05-07T16:20:35;5.18;;;2.05;;
64339;SDS011;63709;53.258;-8.814;2023-05-07T16:26:23;7.32;;;2.03;;
64339;SDS011;63709;53.258;-8.814;2023-05-07T16:37:35;6.80;;;2.30;;
64339;SDS011;63709;53.258;-8.814;2023-05-07T16:45:39;3.60;;;1.90;;
64339;SDS011;63709;53.258;-8.814;2023-05-07T16:54:39;5.93;;;1.95;;
64339;SDS011;63709;53.258;-8.814;2023-05-07T17:00:12;1.95;;;1.30;;
64339;SDS011;63709;53.258;-8.814;2023-05-07T17:06:00;3.75;;;1.58;;
64339;SDS011;63709;53.258;-8.814;2023-05-07T17:08:26;3.35;;;1.40;;
64339;SDS011;63709;53.258;-8.814;2023-05-07T17:13:24;3.50;;;1.80;;
64339;SDS011;63709;53.258;-8.814;2023-05-07T17:15:50;3.53;;;1.77;;
64339;SDS011;63709;53.258;-8.814;2023-05-07T17:21:39;4.18;;;1.65;;
64339;SDS011;63709;53.258;-8.814;2023-05-07T17:24:18;3.20;;;2.08;;
64339;SDS011;63709;53.258;-8.814;2023-05-07T17:26:46;4.75;;;2.10;;
64339;SDS011;63709;53.258;-8.814;2023-05-07T17:29:22;3.70;;;1.88;;
64339;SDS011;63709;53.258;-8.814;2023-05-07T17:34:40;4.25;;;2.05;;
64339;SDS011;63709;53.258;-8.814;2023-05-07T17:37:06;4.10;;;2.58;;
64339;SDS011;63709;53.258;-8.814;2023-05-07T17:42:17;3.70;;;2.15;;
64339;SDS011;63709;53.258;-8.814;2023-05-07T17:44:42;4.22;;;2.08;;
64339;SDS011;63709;53.258;-8.814;2023-05-07T17:47:10;8.98;;;3.90;;
64339;SDS011;63709;53.258;-8.814;2023-05-07T17:49:49;3.88;;;2.15;;
64339;SDS011;63709;53.258;-8.814;2023-05-07T17:52:14;3.05;;;1.80;;
64339;SDS011;63709;53.258;-8.814;2023-05-07T17:54:41;5.22;;;2.10;;
64339;SDS011;63709;53.258;-8.814;2023-05-07T17:57:07;5.47;;;2.00;;
64339;SDS011;63709;53.258;-8.814;2023-05-07T17:59:36;5.60;;;2.20;;
64339;SDS011;63709;53.258;-8.814;2023-05-07T18:02:04;7.47;;;2.22;;
64339;SDS011;63709;53.258;-8.814;2023-05-07T18:04:32;4.25;;;1.90;;
64339;SDS011;63709;53.258;-8.814;2023-05-07T18:07:00;4.00;;;1.83;;
64339;SDS011;63709;53.258;-8.814;2023-05-07T18:09:29;4.18;;;2.13;;
64339;SDS011;63709;53.258;-8.814;2023-05-07T18:11:56;2.92;;;1.70;;
64339;SDS011;63709;53.258;-8.814;2023-05-07T18:14:23;3.38;;;1.70;;
64339;SDS011;63709;53.258;-8.814;2023-05-07T18:16:50;3.83;;;1.55;;
64339;SDS011;63709;53.258;-8.814;2023-05-07T18:19:18;4.47;;;1.90;;
64339;SDS011;63709;53.258;-8.814;2023-05-07T18:21:46;2.58;;;1.75;;
64339;SDS011;63709;53.258;-8.814;2023-05-07T18:24:13;4.18;;;1.67;;
64339;SDS011;63709;53.258;-8.814;2023-05-07T18:26:40;2.97;;;1.60;;
64339;SDS011;63709;53.258;-8.814;2023-05-07T18:29:09;2.42;;;1.45;;
64339;SDS011;63709;53.258;-8.814;2023-05-07T18:31:50;3.22;;;1.45;;
64339;SDS011;63709;53.258;-8.814;2023-05-07T18:34:17;2.25;;;1.52;;
64339;SDS011;63709;53.258;-8.814;2023-05-07T18:36:46;3.25;;;1.42;;
64339;SDS011;63709;53.258;-8.814;2023-05-07T18:41:40;2.80;;;1.35;;
64339;SDS011;63709;53.258;-8.814;2023-05-07T18:44:18;7.38;;;1.58;;
64339;SDS011;63709;53.258;-8.814;2023-05-07T18:46:48;3.85;;;1.50;;
64339;SDS011;63709;53.258;-8.814;2023-05-07T18:49:18;2.78;;;1.40;;
64339;SDS011;63709;53.258;-8.814;2023-05-07T18:51:44;6.13;;;1.58;;
64339;SDS011;63709;53.258;-8.814;2023-05-07T18:54:09;3.85;;;1.48;;
64339;SDS011;63709;53.258;-8.814;2023-05-07T18:56:35;1.42;;;1.10;;
64339;SDS011;63709;53.258;-8.814;2023-05-07T18:59:14;1.60;;;1.13;;
64339;SDS011;63709;53.258;-8.814;2023-05-07T19:08:18;1.92;;;1.05;;
64339;SDS011;63709;53.258;-8.814;2023-05-07T19:10:58;2.30;;;1.40;;
64339;SDS011;63709;53.258;-8.814;2023-05-07T19:16:02;2.00;;;1.23;;
64339;SDS011;63709;53.258;-8.814;2023-05-07T19:18:47;1.45;;;1.00;;
64339;SDS011;63709;53.258;-8.814;2023-05-07T19:21:15;1.70;;;1.33;;
64339;SDS011;63709;53.258;-8.814;2023-05-07T19:23:41;2.08;;;1.27;;
64339;SDS011;63709;53.258;-8.814;2023-05-07T19:28:46;2.63;;;1.20;;
64339;SDS011;63709;53.258;-8.814;2023-05-07T19:31:20;2.80;;;1.20;;
64339;SDS011;63709;53.258;-8.814;2023-05-07T19:33:50;2.45;;;1.40;;
64339;SDS011;63709;53.258;-8.814;2023-05-07T19:38:51;3.67;;;1.40;;
64339;SDS011;63709;53.258;-8.814;2023-05-07T19:41:20;2.30;;;1.30;;
64339;SDS011;63709;53.258;-8.814;2023-05-07T19:43:53;1.30;;;0.93;;
64339;SDS011;63709;53.258;-8.814;2023-05-07T19:52:44;2.13;;;1.30;;
64339;SDS011;63709;53.258;-8.814;2023-05-07T20:01:28;1.83;;;1.33;;
64339;SDS011;63709;53.258;-8.814;2023-05-07T20:07:23;2.50;;;1.30;;
64339;SDS011;63709;53.258;-8.814;2023-05-07T20:16:08;2.85;;;0.90;;
64339;SDS011;63709;53.258;-8.814;2023-05-07T20:25:06;1.23;;;1.02;;
64339;SDS011;63709;53.258;-8.814;2023-05-07T20:30:15;1.27;;;1.10;;